Terminal Aerodrome Forecast
Issued by NWS

Home | Current Version | Previous Version | Text Only | Print | Product List | Glossary On
Versions: 1 2 3 4 5 6 7 8 9 10 11 12 13
000
FTAK31 PAJN 211700
TAFAGY
TAF
PAGY 211723Z 2118/2218 03004KT P6SM FEW120
     FM212200 21006KT P6SM SKC
     FM220300 VRB03KT P6SM SKC
     FM221700 21005KT P6SM SCT120
      AMD LTD TO CLD VIS AND WIND=

USA.gov is the U.S. government's official web portal to all federal, state and local government web resources and services.